sensor_id;sensor_type;location;lat;lon;timestamp;pressure;altitude;pressure_sealevel;temperature;humidity
21300;BME280;10809;49.476;11.016;2023-04-28T00:00:26;98235.53;;;12.35;41.69
21300;BME280;10809;49.476;11.016;2023-04-28T00:02:57;98230.41;;;12.32;41.96
21300;BME280;10809;49.476;11.016;2023-04-28T00:05:31;98236.78;;;12.29;41.87
21300;BME280;10809;49.476;11.016;2023-04-28T00:08:07;98243.00;;;12.28;41.69
21300;BME280;10809;49.476;11.016;2023-04-28T00:10:41;98230.81;;;12.26;41.80
21300;BME280;10809;49.476;11.016;2023-04-28T00:13:12;98222.06;;;12.24;41.93
21300;BME280;10809;49.476;11.016;2023-04-28T00:15:42;98220.38;;;12.23;41.70
21300;BME280;10809;49.476;11.016;2023-04-28T00:18:15;98209.00;;;12.21;41.59
21300;BME280;10809;49.476;11.016;2023-04-28T00:20:52;98213.56;;;12.19;41.55
21300;BME280;10809;49.476;11.016;2023-04-28T00:23:22;98215.47;;;12.17;41.78
21300;BME280;10809;49.476;11.016;2023-04-28T00:25:54;98209.38;;;12.15;41.87
21300;BME280;10809;49.476;11.016;2023-04-28T00:28:25;98214.78;;;12.13;41.85
21300;BME280;10809;49.476;11.016;2023-04-28T00:30:55;98198.13;;;12.11;41.85
21300;BME280;10809;49.476;11.016;2023-04-28T00:33:30;98194.72;;;12.09;42.05
21300;BME280;10809;49.476;11.016;2023-04-28T00:36:00;98193.84;;;12.09;42.26
21300;BME280;10809;49.476;11.016;2023-04-28T00:38:31;98192.16;;;12.08;42.26
21300;BME280;10809;49.476;11.016;2023-04-28T00:41:10;98185.25;;;12.05;42.22
21300;BME280;10809;49.476;11.016;2023-04-28T00:43:53;98189.69;;;12.05;41.71
21300;BME280;10809;49.476;11.016;2023-04-28T00:46:29;98185.34;;;12.04;41.71
21300;BME280;10809;49.476;11.016;2023-04-28T00:49:24;98186.09;;;12.06;41.62
21300;BME280;10809;49.476;11.016;2023-04-28T00:51:55;98180.88;;;12.04;42.03
21300;BME280;10809;49.476;11.016;2023-04-28T00:54:32;98187.13;;;12.03;41.69
21300;BME280;10809;49.476;11.016;2023-04-28T00:57:03;98171.22;;;12.03;41.96
21300;BME280;10809;49.476;11.016;2023-04-28T00:59:40;98176.63;;;12.02;41.54
21300;BME280;10809;49.476;11.016;2023-04-28T01:02:14;98180.97;;;12.03;41.53
21300;BME280;10809;49.476;11.016;2023-04-28T01:04:52;98176.72;;;12.00;41.75
21300;BME280;10809;49.476;11.016;2023-04-28T01:07:27;98171.31;;;12.02;41.60
21300;BME280;10809;49.476;11.016;2023-04-28T01:10:13;98160.81;;;12.00;41.68
21300;BME280;10809;49.476;11.016;2023-04-28T01:12:45;98164.31;;;12.01;41.65
21300;BME280;10809;49.476;11.016;2023-04-28T01:15:22;98159.94;;;12.00;41.69
21300;BME280;10809;49.476;11.016;2023-04-28T01:18:00;98151.25;;;11.98;41.70
21300;BME280;10809;49.476;11.016;2023-04-28T01:20:34;98148.50;;;11.99;41.83
21300;BME280;10809;49.476;11.016;2023-04-28T01:23:13;98146.75;;;11.98;41.66
21300;BME280;10809;49.476;11.016;2023-04-28T01:25:44;98141.47;;;11.98;41.96
21300;BME280;10809;49.476;11.016;2023-04-28T01:28:16;98140.53;;;11.99;42.05
21300;BME280;10809;49.476;11.016;2023-04-28T01:30:50;98147.63;;;11.99;42.02
21300;BME280;10809;49.476;11.016;2023-04-28T01:33:24;98150.28;;;11.99;42.16
21300;BME280;10809;49.476;11.016;2023-04-28T01:35:58;98152.06;;;11.98;42.05
21300;BME280;10809;49.476;11.016;2023-04-28T01:38:37;98149.31;;;12.00;42.08
21300;BME280;10809;49.476;11.016;2023-04-28T01:41:09;98148.50;;;11.99;42.27
21300;BME280;10809;49.476;11.016;2023-04-28T01:43:40;98146.66;;;12.00;42.22
21300;BME280;10809;49.476;11.016;2023-04-28T01:46:15;98139.66;;;11.99;42.65
21300;BME280;10809;49.476;11.016;2023-04-28T01:48:49;98136.16;;;11.98;42.49
21300;BME280;10809;49.476;11.016;2023-04-28T01:51:23;98124.72;;;11.98;42.05
21300;BME280;10809;49.476;11.016;2023-04-28T01:53:54;98131.72;;;11.99;42.21
21300;BME280;10809;49.476;11.016;2023-04-28T01:56:32;98127.38;;;11.98;42.07
21300;BME280;10809;49.476;11.016;2023-04-28T01:59:05;98133.50;;;11.98;42.38
21300;BME280;10809;49.476;11.016;2023-04-28T02:01:40;98133.59;;;11.97;42.43
21300;BME280;10809;49.476;11.016;2023-04-28T02:04:16;98134.56;;;11.96;42.15
21300;BME280;10809;49.476;11.016;2023-04-28T02:06:50;98128.38;;;11.95;42.17
21300;BME280;10809;49.476;11.016;2023-04-28T02:09:31;98128.50;;;11.94;42.42
21300;BME280;10809;49.476;11.016;2023-04-28T02:12:05;98127.66;;;11.93;42.57
21300;BME280;10809;49.476;11.016;2023-04-28T02:14:39;98123.38;;;11.91;42.34
21300;BME280;10809;49.476;11.016;2023-04-28T02:17:13;98122.63;;;11.89;42.69
21300;BME280;10809;49.476;11.016;2023-04-28T02:19:44;98127.09;;;11.88;42.45
21300;BME280;10809;49.476;11.016;2023-04-28T02:22:16;98128.00;;;11.87;42.53
21300;BME280;10809;49.476;11.016;2023-04-28T02:24:48;98121.03;;;11.86;42.84
21300;BME280;10809;49.476;11.016;2023-04-28T02:27:19;98122.81;;;11.86;42.83
21300;BME280;10809;49.476;11.016;2023-04-28T02:29:55;98118.47;;;11.85;42.68
21300;BME280;10809;49.476;11.016;2023-04-28T02:32:35;98113.25;;;11.83;42.63
21300;BME280;10809;49.476;11.016;2023-04-28T02:35:12;98100.94;;;11.82;42.98
21300;BME280;10809;49.476;11.016;2023-04-28T02:37:44;98102.84;;;11.80;42.81
21300;BME280;10809;49.476;11.016;2023-04-28T02:40:15;98102.06;;;11.78;42.80
21300;BME280;10809;49.476;11.016;2023-04-28T02:42:49;98104.81;;;11.77;42.84
21300;BME280;10809;49.476;11.016;2023-04-28T02:45:24;98109.31;;;11.76;43.03
21300;BME280;10809;49.476;11.016;2023-04-28T02:47:57;98099.53;;;11.77;42.88
21300;BME280;10809;49.476;11.016;2023-04-28T02:50:34;98090.72;;;11.76;42.99
21300;BME280;10809;49.476;11.016;2023-04-28T02:53:12;98095.28;;;11.74;42.78
21300;BME280;10809;49.476;11.016;2023-04-28T02:55:46;98092.72;;;11.73;42.98
21300;BME280;10809;49.476;11.016;2023-04-28T02:58:18;98092.63;;;11.74;43.36
21300;BME280;10809;49.476;11.016;2023-04-28T03:00:53;98092.81;;;11.71;43.08
21300;BME280;10809;49.476;11.016;2023-04-28T03:03:24;98086.75;;;11.69;43.12
21300;BME280;10809;49.476;11.016;2023-04-28T03:05:58;98087.59;;;11.70;43.26
21300;BME280;10809;49.476;11.016;2023-04-28T03:08:29;98084.19;;;11.68;43.34
21300;BME280;10809;49.476;11.016;2023-04-28T03:11:00;98080.63;;;11.69;43.33
21300;BME280;10809;49.476;11.016;2023-04-28T03:13:32;98076.22;;;11.68;43.41
21300;BME280;10809;49.476;11.016;2023-04-28T03:16:06;98069.25;;;11.67;43.36
21300;BME280;10809;49.476;11.016;2023-04-28T03:18:37;98068.28;;;11.68;43.63
21300;BME280;10809;49.476;11.016;2023-04-28T03:21:11;98061.28;;;11.67;43.50
21300;BME280;10809;49.476;11.016;2023-04-28T03:23:42;98050.69;;;11.67;43.73
21300;BME280;10809;49.476;11.016;2023-04-28T03:26:13;98039.22;;;11.66;43.63
21300;BME280;10809;49.476;11.016;2023-04-28T03:28:44;98040.06;;;11.67;43.71
21300;BME280;10809;49.476;11.016;2023-04-28T03:31:15;98047.94;;;11.68;43.86
21300;BME280;10809;49.476;11.016;2023-04-28T03:33:57;98042.72;;;11.67;43.29
21300;BME280;10809;49.476;11.016;2023-04-28T03:36:29;98040.06;;;11.67;43.67
21300;BME280;10809;49.476;11.016;2023-04-28T03:39:08;98041.84;;;11.66;43.76
21300;BME280;10809;49.476;11.016;2023-04-28T03:41:49;98033.91;;;11.66;43.65
21300;BME280;10809;49.476;11.016;2023-04-28T03:44:38;98046.22;;;11.67;43.69
21300;BME280;10809;49.476;11.016;2023-04-28T03:47:18;98039.09;;;11.68;43.76
21300;BME280;10809;49.476;11.016;2023-04-28T03:49:53;98039.97;;;11.68;43.70
21300;BME280;10809;49.476;11.016;2023-04-28T03:52:27;98036.47;;;11.68;43.63
21300;BME280;10809;49.476;11.016;2023-04-28T03:54:59;98037.31;;;11.68;43.70
21300;BME280;10809;49.476;11.016;2023-04-28T03:57:48;98034.75;;;11.67;43.58
21300;BME280;10809;49.476;11.016;2023-04-28T04:00:21;98024.16;;;11.67;43.83
21300;BME280;10809;49.476;11.016;2023-04-28T04:02:56;98023.28;;;11.66;43.83
21300;BME280;10809;49.476;11.016;2023-04-28T04:05:30;98026.91;;;11.65;43.62
21300;BME280;10809;49.476;11.016;2023-04-28T04:08:04;98016.31;;;11.65;43.98
21300;BME280;10809;49.476;11.016;2023-04-28T04:10:39;98018.09;;;11.65;43.84
21300;BME280;10809;49.476;11.016;2023-04-28T04:13:10;98014.59;;;11.64;44.03
21300;BME280;10809;49.476;11.016;2023-04-28T04:15:45;98017.16;;;11.66;44.12
21300;BME280;10809;49.476;11.016;2023-04-28T04:18:18;98015.44;;;11.65;44.49
21300;BME280;10809;49.476;11.016;2023-04-28T04:21:12;98007.47;;;11.65;44.38
21300;BME280;10809;49.476;11.016;2023-04-28T04:23:44;98012.78;;;11.65;44.00
21300;BME280;10809;49.476;11.016;2023-04-28T04:26:42;98017.25;;;11.64;44.16
21300;BME280;10809;49.476;11.016;2023-04-28T04:29:32;98018.94;;;11.65;44.57
21300;BME280;10809;49.476;11.016;2023-04-28T04:32:09;98025.13;;;11.66;44.62
21300;BME280;10809;49.476;11.016;2023-04-28T04:34:41;98024.25;;;11.65;44.67
21300;BME280;10809;49.476;11.016;2023-04-28T04:37:14;98018.00;;;11.66;44.74
21300;BME280;10809;49.476;11.016;2023-04-28T04:40:00;98016.31;;;11.65;44.67
21300;BME280;10809;49.476;11.016;2023-04-28T04:42:40;98020.63;;;11.66;44.63
21300;BME280;10809;49.476;11.016;2023-04-28T04:45:21;98013.66;;;11.65;44.31
21300;BME280;10809;49.476;11.016;2023-04-28T04:47:56;98015.44;;;11.65;44.51
21300;BME280;10809;49.476;11.016;2023-04-28T04:50:28;98018.09;;;11.65;44.85
21300;BME280;10809;49.476;11.016;2023-04-28T04:53:06;98019.06;;;11.64;44.43
21300;BME280;10809;49.476;11.016;2023-04-28T04:55:39;98016.50;;;11.62;44.79
21300;BME280;10809;49.476;11.016;2023-04-28T04:58:12;98027.97;;;11.63;44.93
21300;BME280;10809;49.476;11.016;2023-04-28T05:01:03;98028.91;;;11.62;44.84
21300;BME280;10809;49.476;11.016;2023-04-28T05:03:35;98023.69;;;11.60;45.16
21300;BME280;10809;49.476;11.016;2023-04-28T05:06:09;98014.91;;;11.60;44.93
21300;BME280;10809;49.476;11.016;2023-04-28T05:08:53;98030.91;;;11.58;44.98
21300;BME280;10809;49.476;11.016;2023-04-28T05:11:30;98029.19;;;11.57;45.10
21300;BME280;10809;49.476;11.016;2023-04-28T05:14:01;98038.00;;;11.58;45.22
21300;BME280;10809;49.476;11.016;2023-04-28T05:16:40;98036.31;;;11.57;45.21
21300;BME280;10809;49.476;11.016;2023-04-28T05:19:19;98032.81;;;11.56;45.09
21300;BME280;10809;49.476;11.016;2023-04-28T05:21:50;98027.41;;;11.58;45.28
21300;BME280;10809;49.476;11.016;2023-04-28T05:24:23;98037.25;;;11.56;45.66
21300;BME280;10809;49.476;11.016;2023-04-28T05:26:58;98031.94;;;11.56;45.27
21300;BME280;10809;49.476;11.016;2023-04-28T05:29:32;98034.59;;;11.56;45.62
21300;BME280;10809;49.476;11.016;2023-04-28T05:32:09;98025.81;;;11.55;45.36
21300;BME280;10809;49.476;11.016;2023-04-28T05:34:40;98033.66;;;11.57;45.64
21300;BME280;10809;49.476;11.016;2023-04-28T05:37:14;98032.81;;;11.56;45.77
21300;BME280;10809;49.476;11.016;2023-04-28T05:39:47;98038.00;;;11.58;46.29
21300;BME280;10809;49.476;11.016;2023-04-28T05:42:24;98034.41;;;11.59;45.92
21300;BME280;10809;49.476;11.016;2023-04-28T05:44:55;98016.69;;;11.59;46.24
21300;BME280;10809;49.476;11.016;2023-04-28T05:47:25;98020.09;;;11.61;45.98
21300;BME280;10809;49.476;11.016;2023-04-28T05:49:56;98027.19;;;11.61;46.26
21300;BME280;10809;49.476;11.016;2023-04-28T05:52:26;98028.06;;;11.61;46.82
21300;BME280;10809;49.476;11.016;2023-04-28T05:55:00;98026.34;;;11.60;46.44
21300;BME280;10809;49.476;11.016;2023-04-28T05:57:30;98020.09;;;11.61;47.08
21300;BME280;10809;49.476;11.016;2023-04-28T06:00:08;98016.50;;;11.62;46.58
21300;BME280;10809;49.476;11.016;2023-04-28T06:02:42;98021.69;;;11.64;46.98
21300;BME280;10809;49.476;11.016;2023-04-28T06:05:19;98022.66;;;11.63;47.10
21300;BME280;10809;49.476;11.016;2023-04-28T06:07:52;98019.06;;;11.64;47.05
21300;BME280;10809;49.476;11.016;2023-04-28T06:10:25;98024.34;;;11.64;47.55
21300;BME280;10809;49.476;11.016;2023-04-28T06:12:55;98022.47;;;11.66;47.51
21300;BME280;10809;49.476;11.016;2023-04-28T06:15:26;98024.16;;;11.67;47.94
21300;BME280;10809;49.476;11.016;2023-04-28T06:18:22;98026.81;;;11.67;47.46
21300;BME280;10809;49.476;11.016;2023-04-28T06:21:12;98026.63;;;11.70;47.63
21300;BME280;10809;49.476;11.016;2023-04-28T06:23:42;98018.66;;;11.70;48.29
21300;BME280;10809;49.476;11.016;2023-04-28T06:26:20;98016.97;;;11.69;48.31
21300;BME280;10809;49.476;11.016;2023-04-28T06:28:50;98016.09;;;11.68;48.32
21300;BME280;10809;49.476;11.016;2023-04-28T06:31:22;98017.06;;;11.67;48.00
21300;BME280;10809;49.476;11.016;2023-04-28T06:33:57;98010.13;;;11.65;48.33
21300;BME280;10809;49.476;11.016;2023-04-28T06:36:28;98009.41;;;11.63;48.32
21300;BME280;10809;49.476;11.016;2023-04-28T06:38:58;98008.63;;;11.61;48.41
21300;BME280;10809;49.476;11.016;2023-04-28T06:41:29;98010.53;;;11.59;48.65
21300;BME280;10809;49.476;11.016;2023-04-28T06:44:02;98005.41;;;11.56;49.00
21300;BME280;10809;49.476;11.016;2023-04-28T06:46:33;98005.63;;;11.53;49.09
21300;BME280;10809;49.476;11.016;2023-04-28T06:49:06;98005.63;;;11.53;48.86
21300;BME280;10809;49.476;11.016;2023-04-28T06:51:37;97996.94;;;11.51;49.21
21300;BME280;10809;49.476;11.016;2023-04-28T06:54:07;97988.97;;;11.51;49.29
21300;BME280;10809;49.476;11.016;2023-04-28T06:56:38;97995.22;;;11.50;49.50
21300;BME280;10809;49.476;11.016;2023-04-28T06:59:08;97994.38;;;11.49;49.36
21300;BME280;10809;49.476;11.016;2023-04-28T07:01:40;97997.88;;;11.50;49.63
21300;BME280;10809;49.476;11.016;2023-04-28T07:04:10;97997.97;;;11.48;49.98
21300;BME280;10809;49.476;11.016;2023-04-28T07:06:43;98007.53;;;11.51;49.78
21300;BME280;10809;49.476;11.016;2023-04-28T07:09:14;98003.16;;;11.50;49.76
21300;BME280;10809;49.476;11.016;2023-04-28T07:11:45;97997.97;;;11.48;50.27
21300;BME280;10809;49.476;11.016;2023-04-28T07:14:19;97990.97;;;11.47;50.06
21300;BME280;10809;49.476;11.016;2023-04-28T07:16:49;97990.00;;;11.48;50.35
21300;BME280;10809;49.476;11.016;2023-04-28T07:19:29;97997.22;;;11.46;49.86
21300;BME280;10809;49.476;11.016;2023-04-28T07:22:12;97997.34;;;11.45;50.37
21300;BME280;10809;49.476;11.016;2023-04-28T07:24:43;97993.81;;;11.44;50.90
21300;BME280;10809;49.476;11.016;2023-04-28T07:27:13;98007.16;;;11.43;50.87
21300;BME280;10809;49.476;11.016;2023-04-28T07:29:44;98017.00;;;11.41;51.06
21300;BME280;10809;49.476;11.016;2023-04-28T07:32:14;98018.84;;;11.40;51.23
21300;BME280;10809;49.476;11.016;2023-04-28T07:34:45;98016.28;;;11.39;51.23
21300;BME280;10809;49.476;11.016;2023-04-28T07:37:24;98024.41;;;11.36;51.04
21300;BME280;10809;49.476;11.016;2023-04-28T07:39:55;98023.66;;;11.34;51.38
21300;BME280;10809;49.476;11.016;2023-04-28T07:42:26;98013.97;;;11.32;51.80
21300;BME280;10809;49.476;11.016;2023-04-28T07:45:09;98028.28;;;11.30;51.29
21300;BME280;10809;49.476;11.016;2023-04-28T07:47:43;98029.34;;;11.27;51.85
21300;BME280;10809;49.476;11.016;2023-04-28T07:50:16;98026.88;;;11.24;51.92
21300;BME280;10809;49.476;11.016;2023-04-28T07:52:47;98027.06;;;11.21;52.44
21300;BME280;10809;49.476;11.016;2023-04-28T07:55:17;98023.63;;;11.19;52.80
21300;BME280;10809;49.476;11.016;2023-04-28T07:57:48;98029.91;;;11.18;53.40
21300;BME280;10809;49.476;11.016;2023-04-28T08:00:18;98029.03;;;11.18;52.73
21300;BME280;10809;49.476;11.016;2023-04-28T08:02:49;98030.09;;;11.15;53.20
21300;BME280;10809;49.476;11.016;2023-04-28T08:05:20;98029.31;;;11.13;53.27
21300;BME280;10809;49.476;11.016;2023-04-28T08:07:50;98031.09;;;11.13;53.48
21300;BME280;10809;49.476;11.016;2023-04-28T08:10:21;98026.75;;;11.12;53.61
21300;BME280;10809;49.476;11.016;2023-04-28T08:12:51;98032.94;;;11.12;53.50
21300;BME280;10809;49.476;11.016;2023-04-28T08:15:25;98026.75;;;11.12;53.69
21300;BME280;10809;49.476;11.016;2023-04-28T08:17:56;98020.59;;;11.11;54.01
21300;BME280;10809;49.476;11.016;2023-04-28T08:20:30;98023.25;;;11.11;53.75
21300;BME280;10809;49.476;11.016;2023-04-28T08:23:01;98011.91;;;11.09;53.90
21300;BME280;10809;49.476;11.016;2023-04-28T08:25:41;98007.53;;;11.08;53.55
21300;BME280;10809;49.476;11.016;2023-04-28T08:28:13;98014.66;;;11.08;54.25
21300;BME280;10809;49.476;11.016;2023-04-28T08:30:46;98001.41;;;11.08;54.47
21300;BME280;10809;49.476;11.016;2023-04-28T08:33:23;97996.03;;;11.09;54.15
21300;BME280;10809;49.476;11.016;2023-04-28T08:35:57;97987.97;;;11.11;54.45
21300;BME280;10809;49.476;11.016;2023-04-28T08:38:34;97987.88;;;11.12;54.34
21300;BME280;10809;49.476;11.016;2023-04-28T08:41:08;97981.63;;;11.13;54.63
21300;BME280;10809;49.476;11.016;2023-04-28T08:43:39;97975.38;;;11.14;55.01
21300;BME280;10809;49.476;11.016;2023-04-28T08:46:15;97959.47;;;11.14;54.92
21300;BME280;10809;49.476;11.016;2023-04-28T08:48:48;97960.31;;;11.15;55.42
21300;BME280;10809;49.476;11.016;2023-04-28T08:51:37;97967.41;;;11.14;54.97
21300;BME280;10809;49.476;11.016;2023-04-28T08:54:20;97969.13;;;11.15;54.91
21300;BME280;10809;49.476;11.016;2023-04-28T08:56:59;97969.13;;;11.15;55.31
21300;BME280;10809;49.476;11.016;2023-04-28T08:59:45;97969.13;;;11.15;55.24
21300;BME280;10809;49.476;11.016;2023-04-28T09:02:17;97974.44;;;11.15;55.68
21300;BME280;10809;49.476;11.016;2023-04-28T09:04:57;97971.78;;;11.15;55.62
21300;BME280;10809;49.476;11.016;2023-04-28T09:07:27;97978.88;;;11.15;55.82
21300;BME280;10809;49.476;11.016;2023-04-28T09:10:23;97978.88;;;11.15;55.09
21300;BME280;10809;49.476;11.016;2023-04-28T09:12:54;97979.84;;;11.14;56.09
21300;BME280;10809;49.476;11.016;2023-04-28T09:15:38;97985.13;;;11.14;56.22
21300;BME280;10809;49.476;11.016;2023-04-28T09:18:14;97979.94;;;11.12;55.76
21300;BME280;10809;49.476;11.016;2023-04-28T09:20:45;97979.06;;;11.12;56.36
21300;BME280;10809;49.476;11.016;2023-04-28T09:23:22;97973.78;;;11.12;55.72
21300;BME280;10809;49.476;11.016;2023-04-28T09:28:34;97980.03;;;11.11;56.62
21300;BME280;10809;49.476;11.016;2023-04-28T09:31:05;97983.50;;;11.11;56.58
21300;BME280;10809;49.476;11.016;2023-04-28T09:33:57;97980.84;;;11.11;56.19
21300;BME280;10809;49.476;11.016;2023-04-28T09:36:31;97987.78;;;11.14;57.01
21300;BME280;10809;49.476;11.016;2023-04-28T09:39:05;97984.28;;;11.13;57.16
21300;BME280;10809;49.476;11.016;2023-04-28T09:41:43;97981.63;;;11.13;56.89
21300;BME280;10809;49.476;11.016;2023-04-28T09:44:16;97977.28;;;11.12;57.40
21300;BME280;10809;49.476;11.016;2023-04-28T09:46:47;97965.72;;;11.13;57.86
21300;BME280;10809;49.476;11.016;2023-04-28T09:49:18;97952.38;;;11.15;58.40
21300;BME280;10809;49.476;11.016;2023-04-28T09:51:48;97957.47;;;11.18;58.43
21300;BME280;10809;49.476;11.016;2023-04-28T09:54:20;97957.28;;;11.21;58.72
21300;BME280;10809;49.476;11.016;2023-04-28T09:57:03;97976.53;;;11.24;58.72
21300;BME280;10809;49.476;11.016;2023-04-28T09:59:39;97973.59;;;11.29;58.59
21300;BME280;10809;49.476;11.016;2023-04-28T10:02:12;97975.19;;;11.32;58.94
21300;BME280;10809;49.476;11.016;2023-04-28T10:04:44;97952.19;;;11.32;59.08
21300;BME280;10809;49.476;11.016;2023-04-28T10:07:25;97941.50;;;11.34;58.55
21300;BME280;10809;49.476;11.016;2023-04-28T10:09:56;97945.63;;;11.38;59.35
21300;BME280;10809;49.476;11.016;2023-04-28T10:12:27;97943.84;;;11.38;59.36
21300;BME280;10809;49.476;11.016;2023-04-28T10:15:01;97931.34;;;11.40;59.82
21300;BME280;10809;49.476;11.016;2023-04-28T10:17:35;97924.03;;;11.44;59.76
21300;BME280;10809;49.476;11.016;2023-04-28T10:20:07;97924.78;;;11.46;60.16
21300;BME280;10809;49.476;11.016;2023-04-28T10:25:48;97915.47;;;11.53;60.33
21300;BME280;10809;49.476;11.016;2023-04-28T10:28:35;97917.00;;;11.57;59.85
21300;BME280;10809;49.476;11.016;2023-04-28T10:31:23;97927.41;;;11.60;59.75
21300;BME280;10809;49.476;11.016;2023-04-28T10:33:54;97912.97;;;11.64;60.68
21300;BME280;10809;49.476;11.016;2023-04-28T10:36:50;97930.38;;;11.68;59.96
21300;BME280;10809;49.476;11.016;2023-04-28T10:39:25;97936.44;;;11.70;60.33
21300;BME280;10809;49.476;11.016;2023-04-28T10:41:59;97933.59;;;11.73;60.67
21300;BME280;10809;49.476;11.016;2023-04-28T10:47:14;97928.94;;;11.76;60.17
21300;BME280;10809;49.476;11.016;2023-04-28T10:55:30;97930.22;;;11.83;60.16
21300;BME280;10809;49.476;11.016;2023-04-28T11:00:46;97913.22;;;11.86;61.22
21300;BME280;10809;49.476;11.016;2023-04-28T11:06:38;97913.16;;;12.00;61.07
21300;BME280;10809;49.476;11.016;2023-04-28T11:14:30;97911.59;;;12.22;62.30
21300;BME280;10809;49.476;11.016;2023-04-28T11:17:03;97918.00;;;12.32;62.66
21300;BME280;10809;49.476;11.016;2023-04-28T11:19:36;97912.19;;;12.40;62.65
21300;BME280;10809;49.476;11.016;2023-04-28T11:22:18;97912.41;;;12.49;61.67
21300;BME280;10809;49.476;11.016;2023-04-28T11:24:57;97914.44;;;12.58;62.12
21300;BME280;10809;49.476;11.016;2023-04-28T11:27:29;97912.91;;;12.67;62.93
21300;BME280;10809;49.476;11.016;2023-04-28T11:30:00;97919.47;;;12.74;62.47
21300;BME280;10809;49.476;11.016;2023-04-28T11:32:33;97914.59;;;12.80;62.06
21300;BME280;10809;49.476;11.016;2023-04-28T11:35:07;97919.47;;;12.86;61.87
21300;BME280;10809;49.476;11.016;2023-04-28T11:37:41;97918.41;;;12.89;61.83
21300;BME280;10809;49.476;11.016;2023-04-28T11:40:17;97918.22;;;12.92;62.25
21300;BME280;10809;49.476;11.016;2023-04-28T11:42:48;97914.25;;;12.97;62.62
21300;BME280;10809;49.476;11.016;2023-04-28T11:45:24;97913.19;;;13.00;61.86
21300;BME280;10809;49.476;11.016;2023-04-28T11:47:56;97919.13;;;13.03;62.44
21300;BME280;10809;49.476;11.016;2023-04-28T11:50:36;97914.25;;;13.10;62.53
21300;BME280;10809;49.476;11.016;2023-04-28T11:53:07;97914.84;;;13.14;62.67
21300;BME280;10809;49.476;11.016;2023-04-28T11:55:38;97915.38;;;13.19;62.76
21300;BME280;10809;49.476;11.016;2023-04-28T11:58:21;97915.91;;;13.24;62.33
21300;BME280;10809;49.476;11.016;2023-04-28T12:01:09;97911.94;;;13.29;62.15
21300;BME280;10809;49.476;11.016;2023-04-28T12:03:44;97907.97;;;13.35;62.78
21300;BME280;10809;49.476;11.016;2023-04-28T12:06:18;97906.56;;;13.42;63.10
21300;BME280;10809;49.476;11.016;2023-04-28T12:08:49;97901.69;;;13.48;63.15
21300;BME280;10809;49.476;11.016;2023-04-28T12:11:21;97899.53;;;13.53;63.36
21300;BME280;10809;49.476;11.016;2023-04-28T12:14:02;97891.84;;;13.61;62.78
21300;BME280;10809;49.476;11.016;2023-04-28T12:16:38;97908.19;;;13.68;62.81
21300;BME280;10809;49.476;11.016;2023-04-28T12:19:16;97911.22;;;13.74;62.60
21300;BME280;10809;49.476;11.016;2023-04-28T12:21:59;97894.09;;;13.78;62.34
21300;BME280;10809;49.476;11.016;2023-04-28T12:24:31;97886.81;;;13.80;62.83
21300;BME280;10809;49.476;11.016;2023-04-28T12:27:13;97884.91;;;13.82;62.56
21300;BME280;10809;49.476;11.016;2023-04-28T12:29:45;97882.88;;;13.86;63.24
21300;BME280;10809;49.476;11.016;2023-04-28T12:32:18;97881.53;;;13.91;63.24
21300;BME280;10809;49.476;11.016;2023-04-28T12:34:58;97882.81;;;13.98;62.67
21300;BME280;10809;49.476;11.016;2023-04-28T12:37:28;97898.41;;;14.03;63.00
21300;BME280;10809;49.476;11.016;2023-04-28T12:39:59;97888.38;;;14.06;62.85
21300;BME280;10809;49.476;11.016;2023-04-28T12:42:29;97888.88;;;14.11;63.00
21300;BME280;10809;49.476;11.016;2023-04-28T12:45:00;97896.50;;;14.16;63.44
21300;BME280;10809;49.476;11.016;2023-04-28T12:47:33;97885.25;;;14.23;63.83
21300;BME280;10809;49.476;11.016;2023-04-28T12:50:10;97880.91;;;14.33;63.26
21300;BME280;10809;49.476;11.016;2023-04-28T12:52:41;97887.47;;;14.40;63.42
21300;BME280;10809;49.476;11.016;2023-04-28T12:55:11;97883.41;;;14.47;63.46
21300;BME280;10809;49.476;11.016;2023-04-28T12:57:42;97881.97;;;14.54;63.27
21300;BME280;10809;49.476;11.016;2023-04-28T13:00:13;97901.09;;;14.59;63.31
21300;BME280;10809;49.476;11.016;2023-04-28T13:02:48;97896.50;;;14.61;62.66
21300;BME280;10809;49.476;11.016;2023-04-28T13:05:25;97906.19;;;14.62;62.61
21300;BME280;10809;49.476;11.016;2023-04-28T13:07:56;97902.69;;;14.62;62.41
21300;BME280;10809;49.476;11.016;2023-04-28T13:10:32;97892.25;;;14.59;62.08
21300;BME280;10809;49.476;11.016;2023-04-28T13:13:03;97876.53;;;14.56;62.32
21300;BME280;10809;49.476;11.016;2023-04-28T13:15:34;97874.09;;;14.53;62.57
21300;BME280;10809;49.476;11.016;2023-04-28T13:18:06;97885.81;;;14.50;62.41
21300;BME280;10809;49.476;11.016;2023-04-28T13:20:36;97874.47;;;14.48;62.54
21300;BME280;10809;49.476;11.016;2023-04-28T13:23:10;97873.84;;;14.45;62.52
21300;BME280;10809;49.476;11.016;2023-04-28T13:25:40;97881.06;;;14.43;62.89
21300;BME280;10809;49.476;11.016;2023-04-28T13:28:11;97882.16;;;14.40;62.96
21300;BME280;10809;49.476;11.016;2023-04-28T13:30:42;97882.16;;;14.40;62.99
21300;BME280;10809;49.476;11.016;2023-04-28T13:33:16;97872.44;;;14.39;62.98
21300;BME280;10809;49.476;11.016;2023-04-28T13:35:46;97869.53;;;14.42;63.72
21300;BME280;10809;49.476;11.016;2023-04-28T13:38:20;97865.00;;;14.44;63.63
21300;BME280;10809;49.476;11.016;2023-04-28T13:40:51;97865.38;;;14.51;64.06
21300;BME280;10809;49.476;11.016;2023-04-28T13:43:22;97868.41;;;14.57;64.13
21300;BME280;10809;49.476;11.016;2023-04-28T13:45:58;97874.94;;;14.64;63.48
21300;BME280;10809;49.476;11.016;2023-04-28T13:48:29;97872.78;;;14.69;63.88
21300;BME280;10809;49.476;11.016;2023-04-28T13:51:06;97866.94;;;14.76;63.36
21300;BME280;10809;49.476;11.016;2023-04-28T13:53:40;97862.09;;;14.81;63.46